Aérodrome :
LOGIN :

S'inscrire | Disclaimer

   EN    FR    IT 

 










Légende :    VFR   VFR Marginal   IFR   IFR Intensif   IFR Très Intensif
Visi : 
Plafond : 
>= 8 km
>= 3000ft
5 à 8 km
1000 à 3000 ft
1500m à 5 km
500 à 1000 ft
800 à 1500m
200 à 500 ft
< 800m
< 200 ft
Symboles :   Orages  Brouillard  Fortes neiges  Fortes précipitations  Vent > 20 kt
SIGMETs :   Divers  Orages  Givrage  Turbulence  Onde Orograph.  Cendres Volcan.







- Altitude de l'aérodrome : 1504 ft
- Code IATA : PNA


LEPP - Noain Pamplona

DERNIER METAR :
  • 230830Z 31007KT 9999 FEW020 SCT023 22/16 Q1024

METARs EXPIRÉS :
  • 230800Z 31008KT 260V010 9999 FEW018 BKN022 20/16 Q1024
  • 230730Z 31008KT 280V350 9999 FEW018 BKN022 20/16 Q1024
  • 230700Z 32006KT 280V350 9999 BKN017 20/16 Q1024
  • 230630Z 31006KT 9999 FEW017 SCT022 19/16 Q1023
  • 230600Z 33004KT 300V010 9999 SCT017 BKN022 19/15 Q1023
  • 230530Z 32007KT 9999 BKN017 BKN022 18/15 Q1023

TAF TAF LEPP
Valide du 23 à 09h jusqu'au 24 à 09h UTC


230800Z 2309/2409 34009KT 9999 SCT025 TX29/2313Z TN15/2403Z
TEMPO 2312/2322 34015G27KT
PROB30
TEMPO 2400/2407 BKN014
Pas de NOTAMs connus pour ce terrain.



MET'MAP, la Météo Aéronautique d'un coup d'oeil ! - Copyright ORBIFLY Décembre 2007 - Disclaimer

ORBIFLY MET'MAP TEAM :

Programmation & Développement : Alexandra Zaïnal
Conception & Développement : Baudouin d'Aumeries
Co-Programmation & Développement : Marc-Olivier Méhu
Soutien technique & logistique : Manuel Goepfert

Contact : metmap@orbifly.com




SOURCES & CREDITS :

   NOAA